sensor_id;sensor_type;location;lat;lon;timestamp;pressure;altitude;pressure_sealevel;temperature;humidity
16255;BME280;8235;52.198;9.904;2023-02-03T00:01:23;101265.63;;;6.16;100.00
16255;BME280;8235;52.198;9.904;2023-02-03T00:03:49;101270.88;;;6.18;100.00
16255;BME280;8235;52.198;9.904;2023-02-03T00:06:17;101278.75;;;6.19;100.00
16255;BME280;8235;52.198;9.904;2023-02-03T00:08:43;101279.56;;;6.21;100.00
16255;BME280;8235;52.198;9.904;2023-02-03T00:11:10;101282.91;;;6.26;100.00
16255;BME280;8235;52.198;9.904;2023-02-03T00:13:37;101284.50;;;6.31;100.00
16255;BME280;8235;52.198;9.904;2023-02-03T00:16:04;101276.41;;;6.35;100.00
16255;BME280;8235;52.198;9.904;2023-02-03T00:18:33;101268.31;;;6.40;100.00
16255;BME280;8235;52.198;9.904;2023-02-03T00:21:00;101260.28;;;6.43;100.00
16255;BME280;8235;52.198;9.904;2023-02-03T00:23:27;101264.53;;;6.47;100.00
16255;BME280;8235;52.198;9.904;2023-02-03T00:25:56;101255.56;;;6.51;100.00
16255;BME280;8235;52.198;9.904;2023-02-03T00:28:23;101251.03;;;6.54;100.00
16255;BME280;8235;52.198;9.904;2023-02-03T00:30:52;101247.47;;;6.55;100.00
16255;BME280;8235;52.198;9.904;2023-02-03T00:33:18;101246.47;;;6.58;100.00
16255;BME280;8235;52.198;9.904;2023-02-03T00:35:45;101238.44;;;6.61;100.00
16255;BME280;8235;52.198;9.904;2023-02-03T00:38:11;101244.50;;;6.63;100.00
16255;BME280;8235;52.198;9.904;2023-02-03T00:40:39;101245.38;;;6.63;100.00
16255;BME280;8235;52.198;9.904;2023-02-03T00:43:06;101239.09;;;6.66;100.00
16255;BME280;8235;52.198;9.904;2023-02-03T00:45:32;101242.56;;;6.68;100.00
16255;BME280;8235;52.198;9.904;2023-02-03T00:47:58;101239.03;;;6.68;100.00
16255;BME280;8235;52.198;9.904;2023-02-03T00:50:25;101246.00;;;6.70;100.00
16255;BME280;8235;52.198;9.904;2023-02-03T00:52:52;101249.47;;;6.72;100.00
16255;BME280;8235;52.198;9.904;2023-02-03T00:55:18;101243.19;;;6.75;100.00
16255;BME280;8235;52.198;9.904;2023-02-03T00:57:46;101243.16;;;6.76;100.00
16255;BME280;8235;52.198;9.904;2023-02-03T01:00:13;101237.75;;;6.79;100.00
16255;BME280;8235;52.198;9.904;2023-02-03T01:02:39;101239.47;;;6.80;100.00
16255;BME280;8235;52.198;9.904;2023-02-03T01:05:07;101239.47;;;6.80;100.00
16255;BME280;8235;52.198;9.904;2023-02-03T01:07:33;101233.97;;;6.85;100.00
16255;BME280;8235;52.198;9.904;2023-02-03T01:10:00;101237.38;;;6.88;100.00
16255;BME280;8235;52.198;9.904;2023-02-03T01:12:28;101232.88;;;6.90;100.00
16255;BME280;8235;52.198;9.904;2023-02-03T01:14:56;101232.81;;;6.92;100.00
16255;BME280;8235;52.198;9.904;2023-02-03T01:17:22;101235.34;;;6.95;100.00
16255;BME280;8235;52.198;9.904;2023-02-03T01:19:50;101229.09;;;6.97;100.00
16255;BME280;8235;52.198;9.904;2023-02-03T01:22:17;101238.66;;;7.00;100.00
16255;BME280;8235;52.198;9.904;2023-02-03T01:24:43;101247.41;;;7.02;100.00
16255;BME280;8235;52.198;9.904;2023-02-03T01:27:10;101239.34;;;7.05;100.00
16255;BME280;8235;52.198;9.904;2023-02-03T01:29:36;101249.88;;;7.07;100.00
16255;BME280;8235;52.198;9.904;2023-02-03T01:32:04;101250.69;;;7.09;100.00
16255;BME280;8235;52.198;9.904;2023-02-03T01:34:31;101251.44;;;7.12;100.00
16255;BME280;8235;52.198;9.904;2023-02-03T01:36:57;101254.91;;;7.14;100.00
16255;BME280;8235;52.198;9.904;2023-02-03T01:39:23;101247.81;;;7.15;100.00
16255;BME280;8235;52.198;9.904;2023-02-03T01:41:53;101248.69;;;7.15;100.00
16255;BME280;8235;52.198;9.904;2023-02-03T01:44:41;101230.91;;;7.17;100.00
16255;BME280;8235;52.198;9.904;2023-02-03T01:47:16;101238.81;;;7.19;100.00
16255;BME280;8235;52.198;9.904;2023-02-03T01:49:47;101242.13;;;7.24;100.00
16255;BME280;8235;52.198;9.904;2023-02-03T01:52:15;101235.84;;;7.26;100.00
16255;BME280;8235;52.198;9.904;2023-02-03T01:54:43;101235.84;;;7.26;100.00
16255;BME280;8235;52.198;9.904;2023-02-03T01:57:13;101243.75;;;7.28;100.00
16255;BME280;8235;52.198;9.904;2023-02-03T01:59:42;101236.59;;;7.30;100.00
16255;BME280;8235;52.198;9.904;2023-02-03T02:02:10;101226.88;;;7.30;100.00
16255;BME280;8235;52.198;9.904;2023-02-03T02:04:45;101223.28;;;7.31;100.00
16255;BME280;8235;52.198;9.904;2023-02-03T02:07:16;101207.34;;;7.33;100.00
16255;BME280;8235;52.198;9.904;2023-02-03T02:09:43;101200.25;;;7.34;100.00
16255;BME280;8235;52.198;9.904;2023-02-03T02:12:11;101203.81;;;7.32;100.00
16255;BME280;8235;52.198;9.904;2023-02-03T02:14:38;101189.66;;;7.34;100.00
16255;BME280;8235;52.198;9.904;2023-02-03T02:17:11;101191.28;;;7.36;100.00
16255;BME280;8235;52.198;9.904;2023-02-03T02:20:03;101178.84;;;7.38;100.00
16255;BME280;8235;52.198;9.904;2023-02-03T02:22:37;101167.31;;;7.39;100.00
16255;BME280;8235;52.198;9.904;2023-02-03T02:25:31;101161.88;;;7.42;100.00
16255;BME280;8235;52.198;9.904;2023-02-03T02:31:43;101175.94;;;7.44;100.00
16255;BME280;8235;52.198;9.904;2023-02-03T02:34:18;101146.72;;;7.46;100.00
16255;BME280;8235;52.198;9.904;2023-02-03T02:36:54;101143.97;;;7.49;100.00
16255;BME280;8235;52.198;9.904;2023-02-03T02:39:32;101130.63;;;7.50;100.00
16255;BME280;8235;52.198;9.904;2023-02-03T02:42:05;101130.69;;;7.49;100.00
16255;BME280;8235;52.198;9.904;2023-02-03T02:44:37;101122.75;;;7.49;100.00
16255;BME280;8235;52.198;9.904;2023-02-03T02:47:10;101118.19;;;7.52;100.00
16255;BME280;8235;52.198;9.904;2023-02-03T02:49:42;101138.44;;;7.53;100.00
16255;BME280;8235;52.198;9.904;2023-02-03T02:52:12;101129.56;;;7.54;100.00
16255;BME280;8235;52.198;9.904;2023-02-03T02:54:41;101131.28;;;7.55;100.00
16255;BME280;8235;52.198;9.904;2023-02-03T02:57:11;101116.31;;;7.54;100.00
16255;BME280;8235;52.198;9.904;2023-02-03T02:59:39;101124.25;;;7.54;100.00
16255;BME280;8235;52.198;9.904;2023-02-03T03:02:05;101132.06;;;7.57;100.00
16255;BME280;8235;52.198;9.904;2023-02-03T03:04:34;101117.97;;;7.57;100.00
16255;BME280;8235;52.198;9.904;2023-02-03T03:07:02;101104.78;;;7.55;100.00
16255;BME280;8235;52.198;9.904;2023-02-03T03:09:34;101093.25;;;7.56;100.00
16255;BME280;8235;52.198;9.904;2023-02-03T03:12:07;101086.16;;;7.57;100.00
16255;BME280;8235;52.198;9.904;2023-02-03T03:14:40;101096.69;;;7.58;100.00
16255;BME280;8235;52.198;9.904;2023-02-03T03:17:10;101100.28;;;7.57;100.00
16255;BME280;8235;52.198;9.904;2023-02-03T03:19:46;101089.59;;;7.59;100.00
16255;BME280;8235;52.198;9.904;2023-02-03T03:22:17;101113.41;;;7.60;99.66
16255;BME280;8235;52.198;9.904;2023-02-03T03:24:47;101103.66;;;7.61;99.60
16255;BME280;8235;52.198;9.904;2023-02-03T03:27:19;101113.41;;;7.60;99.15
16255;BME280;8235;52.198;9.904;2023-02-03T03:29:49;101097.38;;;7.63;98.63
16255;BME280;8235;52.198;9.904;2023-02-03T03:32:18;101099.88;;;7.66;97.84
16255;BME280;8235;52.198;9.904;2023-02-03T03:34:48;101104.91;;;7.73;98.12
16255;BME280;8235;52.198;9.904;2023-02-03T03:37:21;101105.81;;;7.72;97.05
16255;BME280;8235;52.198;9.904;2023-02-03T03:39:53;101111.13;;;7.72;97.31
16255;BME280;8235;52.198;9.904;2023-02-03T03:42:25;101085.41;;;7.74;96.86
16255;BME280;8235;52.198;9.904;2023-02-03T03:44:57;101083.69;;;7.73;96.72
16255;BME280;8235;52.198;9.904;2023-02-03T03:47:30;101077.44;;;7.74;96.61
16255;BME280;8235;52.198;9.904;2023-02-03T03:50:01;101074.09;;;7.70;95.27
16255;BME280;8235;52.198;9.904;2023-02-03T03:52:31;101082.06;;;7.70;96.19
16255;BME280;8235;52.198;9.904;2023-02-03T03:55:02;101086.28;;;7.74;95.32
16255;BME280;8235;52.198;9.904;2023-02-03T03:57:34;101072.94;;;7.76;95.51
16255;BME280;8235;52.198;9.904;2023-02-03T04:00:04;101057.91;;;7.76;95.65
16255;BME280;8235;52.198;9.904;2023-02-03T04:02:35;101067.56;;;7.77;94.81
16255;BME280;8235;52.198;9.904;2023-02-03T04:05:07;101057.84;;;7.78;95.14
16255;BME280;8235;52.198;9.904;2023-02-03T04:07:37;101046.31;;;7.79;94.87
16255;BME280;8235;52.198;9.904;2023-02-03T04:10:19;101051.66;;;7.77;94.87
16255;BME280;8235;52.198;9.904;2023-02-03T04:12:47;101051.66;;;7.77;93.94
16255;BME280;8235;52.198;9.904;2023-02-03T04:15:14;101053.47;;;7.77;94.73
16255;BME280;8235;52.198;9.904;2023-02-03T04:17:40;101048.22;;;7.75;94.54
16255;BME280;8235;52.198;9.904;2023-02-03T04:20:10;101034.25;;;7.72;93.84
16255;BME280;8235;52.198;9.904;2023-02-03T04:22:36;101043.06;;;7.72;93.87
16255;BME280;8235;52.198;9.904;2023-02-03T04:25:03;101053.59;;;7.74;93.27
16255;BME280;8235;52.198;9.904;2023-02-03T04:27:30;101047.34;;;7.75;93.74
16255;BME280;8235;52.198;9.904;2023-02-03T04:29:56;101058.69;;;7.78;93.88
16255;BME280;8235;52.198;9.904;2023-02-03T04:32:23;101050.69;;;7.80;93.83
16255;BME280;8235;52.198;9.904;2023-02-03T04:34:49;101054.13;;;7.82;93.11
16255;BME280;8235;52.198;9.904;2023-02-03T04:37:17;101039.13;;;7.81;93.23
16255;BME280;8235;52.198;9.904;2023-02-03T04:39:45;101051.53;;;7.80;93.22
16255;BME280;8235;52.198;9.904;2023-02-03T04:42:11;101050.69;;;7.80;93.03
16255;BME280;8235;52.198;9.904;2023-02-03T04:44:38;101040.88;;;7.82;93.44
16255;BME280;8235;52.198;9.904;2023-02-03T04:47:04;101045.22;;;7.83;92.43
16255;BME280;8235;52.198;9.904;2023-02-03T04:49:31;101054.06;;;7.83;92.95
16255;BME280;8235;52.198;9.904;2023-02-03T04:51:57;101047.88;;;7.83;92.59
16255;BME280;8235;52.198;9.904;2023-02-03T04:54:25;101061.94;;;7.85;92.44
16255;BME280;8235;52.198;9.904;2023-02-03T04:56:51;101054.78;;;7.87;92.73
16255;BME280;8235;52.198;9.904;2023-02-03T04:59:18;101053.84;;;7.88;92.80
16255;BME280;8235;52.198;9.904;2023-02-03T05:01:44;101043.25;;;7.88;92.83
16255;BME280;8235;52.198;9.904;2023-02-03T05:04:11;101038.88;;;7.87;92.59
16255;BME280;8235;52.198;9.904;2023-02-03T05:06:38;101044.06;;;7.88;92.12
16255;BME280;8235;52.198;9.904;2023-02-03T05:09:04;101030.81;;;7.88;92.28
16255;BME280;8235;52.198;9.904;2023-02-03T05:11:32;101028.09;;;7.90;92.58
16255;BME280;8235;52.198;9.904;2023-02-03T05:13:59;101039.50;;;7.92;91.39
16255;BME280;8235;52.198;9.904;2023-02-03T05:16:25;101036.78;;;7.93;92.06
16255;BME280;8235;52.198;9.904;2023-02-03T05:18:52;101042.88;;;7.95;91.50
16255;BME280;8235;52.198;9.904;2023-02-03T05:21:18;101023.44;;;7.95;92.06
16255;BME280;8235;52.198;9.904;2023-02-03T05:23:45;101038.44;;;7.96;91.68
16255;BME280;8235;52.198;9.904;2023-02-03T05:26:11;101018.94;;;7.97;91.50
16255;BME280;8235;52.198;9.904;2023-02-03T05:28:42;101015.41;;;7.96;91.11
16255;BME280;8235;52.198;9.904;2023-02-03T05:31:08;101014.56;;;7.96;91.08
16255;BME280;8235;52.198;9.904;2023-02-03T05:33:35;101015.50;;;7.95;91.30
16255;BME280;8235;52.198;9.904;2023-02-03T05:36:02;101003.03;;;7.97;91.45
16255;BME280;8235;52.198;9.904;2023-02-03T05:38:28;101004.66;;;7.99;91.09
16255;BME280;8235;52.198;9.904;2023-02-03T05:40:55;100985.19;;;8.00;91.01
16255;BME280;8235;52.198;9.904;2023-02-03T05:43:39;100980.00;;;7.97;90.50
16255;BME280;8235;52.198;9.904;2023-02-03T05:46:06;100986.25;;;7.96;90.87
16255;BME280;8235;52.198;9.904;2023-02-03T05:48:33;100986.31;;;7.95;90.44
16255;BME280;8235;52.198;9.904;2023-02-03T05:51:00;100973.84;;;7.97;90.90
16255;BME280;8235;52.198;9.904;2023-02-03T05:53:27;100979.16;;;7.97;90.62
16255;BME280;8235;52.198;9.904;2023-02-03T05:55:53;100982.66;;;7.97;91.06
16255;BME280;8235;52.198;9.904;2023-02-03T05:58:20;100985.19;;;8.00;90.41
16255;BME280;8235;52.198;9.904;2023-02-03T06:00:46;100977.16;;;8.02;89.83
16255;BME280;8235;52.198;9.904;2023-02-03T06:03:14;100977.22;;;8.00;90.29
16255;BME280;8235;52.198;9.904;2023-02-03T06:05:40;100985.19;;;8.00;90.84
16255;BME280;8235;52.198;9.904;2023-02-03T06:08:08;100978.16;;;7.99;90.39
16255;BME280;8235;52.198;9.904;2023-02-03T06:10:35;100971.13;;;7.98;90.91
16255;BME280;8235;52.198;9.904;2023-02-03T06:13:07;100989.47;;;8.03;90.72
16255;BME280;8235;52.198;9.904;2023-02-03T06:15:34;100977.06;;;8.04;89.95
16255;BME280;8235;52.198;9.904;2023-02-03T06:18:00;100971.91;;;8.00;90.95
16255;BME280;8235;52.198;9.904;2023-02-03T06:20:29;100971.97;;;7.99;91.03
16255;BME280;8235;52.198;9.904;2023-02-03T06:22:55;100981.66;;;8.00;91.61
16255;BME280;8235;52.198;9.904;2023-02-03T06:25:22;100989.63;;;8.00;90.98
16255;BME280;8235;52.198;9.904;2023-02-03T06:27:48;100987.97;;;7.97;91.21
16255;BME280;8235;52.198;9.904;2023-02-03T06:30:15;100981.66;;;8.00;91.61
16255;BME280;8235;52.198;9.904;2023-02-03T06:32:42;100979.16;;;7.97;92.41
16255;BME280;8235;52.198;9.904;2023-02-03T06:35:08;100986.19;;;7.98;91.99
16255;BME280;8235;52.198;9.904;2023-02-03T06:37:36;100987.09;;;7.97;92.17
16255;BME280;8235;52.198;9.904;2023-02-03T06:40:03;100985.25;;;7.99;92.12
16255;BME280;8235;52.198;9.904;2023-02-03T06:42:30;100971.25;;;7.95;93.23
16255;BME280;8235;52.198;9.904;2023-02-03T06:44:57;100971.25;;;7.95;93.28
16255;BME280;8235;52.198;9.904;2023-02-03T06:47:23;100980.06;;;7.96;92.84
16255;BME280;8235;52.198;9.904;2023-02-03T06:49:49;100977.56;;;7.93;93.58
16255;BME280;8235;52.198;9.904;2023-02-03T06:52:16;100980.28;;;7.91;93.35
16255;BME280;8235;52.198;9.904;2023-02-03T06:54:44;100968.81;;;7.91;93.62
16255;BME280;8235;52.198;9.904;2023-02-03T06:57:11;100981.16;;;7.92;94.42
16255;BME280;8235;52.198;9.904;2023-02-03T06:59:37;100967.09;;;7.90;94.21
16255;BME280;8235;52.198;9.904;2023-02-03T07:02:04;100965.38;;;7.89;95.38
16255;BME280;8235;52.198;9.904;2023-02-03T07:04:30;100969.81;;;7.88;94.63
16255;BME280;8235;52.198;9.904;2023-02-03T07:06:57;100969.00;;;7.88;94.93
16255;BME280;8235;52.198;9.904;2023-02-03T07:09:23;100966.41;;;7.86;94.99
16255;BME280;8235;52.198;9.904;2023-02-03T07:11:51;100952.28;;;7.86;96.20
16255;BME280;8235;52.198;9.904;2023-02-03T07:14:17;100954.16;;;7.84;96.61
16255;BME280;8235;52.198;9.904;2023-02-03T07:16:44;100960.38;;;7.83;97.72
16255;BME280;8235;52.198;9.904;2023-02-03T07:19:10;100947.19;;;7.81;97.37
16255;BME280;8235;52.198;9.904;2023-02-03T07:21:37;100958.59;;;7.83;98.32
16255;BME280;8235;52.198;9.904;2023-02-03T07:24:04;100955.06;;;7.83;97.66
16255;BME280;8235;52.198;9.904;2023-02-03T07:26:30;100947.19;;;7.81;98.78
16255;BME280;8235;52.198;9.904;2023-02-03T07:28:58;100951.56;;;7.82;98.87
16255;BME280;8235;52.198;9.904;2023-02-03T07:31:25;100954.28;;;7.81;98.88
16255;BME280;8235;52.198;9.904;2023-02-03T07:33:51;100959.66;;;7.79;98.65
16255;BME280;8235;52.198;9.904;2023-02-03T07:36:18;100936.72;;;7.78;99.68
16255;BME280;8235;52.198;9.904;2023-02-03T07:38:44;100941.09;;;7.79;99.63
16255;BME280;8235;52.198;9.904;2023-02-03T07:41:11;100930.56;;;7.78;99.83
16255;BME280;8235;52.198;9.904;2023-02-03T07:43:37;100933.28;;;7.76;100.00
16255;BME280;8235;52.198;9.904;2023-02-03T07:46:05;100935.16;;;7.74;100.00
16255;BME280;8235;52.198;9.904;2023-02-03T07:48:32;100932.50;;;7.74;100.00
16255;BME280;8235;52.198;9.904;2023-02-03T07:50:58;100921.88;;;7.74;100.00
16255;BME280;8235;52.198;9.904;2023-02-03T07:53:25;100915.72;;;7.74;100.00
16255;BME280;8235;52.198;9.904;2023-02-03T07:55:51;100889.22;;;7.74;100.00
16255;BME280;8235;52.198;9.904;2023-02-03T07:58:18;100907.78;;;7.74;100.00
16255;BME280;8235;52.198;9.904;2023-02-03T08:00:44;100913.22;;;7.71;100.00
16255;BME280;8235;52.198;9.904;2023-02-03T08:03:12;100916.66;;;7.73;100.00
16255;BME280;8235;52.198;9.904;2023-02-03T08:05:39;100915.78;;;7.72;100.00
16255;BME280;8235;52.198;9.904;2023-02-03T08:08:05;100910.50;;;7.72;100.00
16255;BME280;8235;52.198;9.904;2023-02-03T08:10:31;100916.50;;;7.76;100.00
16255;BME280;8235;52.198;9.904;2023-02-03T08:13:01;100912.94;;;7.77;100.00
16255;BME280;8235;52.198;9.904;2023-02-03T08:15:27;100903.25;;;7.76;100.00
16255;BME280;8235;52.198;9.904;2023-02-03T08:17:54;100905.91;;;7.76;100.00
16255;BME280;8235;52.198;9.904;2023-02-03T08:20:21;100911.22;;;7.76;100.00
16255;BME280;8235;52.198;9.904;2023-02-03T08:22:48;100902.47;;;7.74;100.00
16255;BME280;8235;52.198;9.904;2023-02-03T08:25:15;100901.47;;;7.76;100.00
16255;BME280;8235;52.198;9.904;2023-02-03T08:27:41;100899.59;;;7.78;100.00
16255;BME280;8235;52.198;9.904;2023-02-03T08:30:11;100919.97;;;7.78;100.00
16255;BME280;8235;52.198;9.904;2023-02-03T08:32:38;100904.78;;;7.81;100.00
16255;BME280;8235;52.198;9.904;2023-02-03T08:35:05;100902.19;;;7.80;100.00
16255;BME280;8235;52.198;9.904;2023-02-03T08:37:33;100879.97;;;7.82;100.00
16255;BME280;8235;52.198;9.904;2023-02-03T08:40:00;100881.69;;;7.83;100.00
16255;BME280;8235;52.198;9.904;2023-02-03T08:42:26;100900.03;;;7.88;100.00
16255;BME280;8235;52.198;9.904;2023-02-03T08:44:53;100908.94;;;7.87;100.00
16255;BME280;8235;52.198;9.904;2023-02-03T08:47:20;100925.69;;;7.87;100.00
16255;BME280;8235;52.198;9.904;2023-02-03T08:49:47;100929.03;;;7.91;100.00
16255;BME280;8235;52.198;9.904;2023-02-03T08:52:14;100908.63;;;7.93;100.00
16255;BME280;8235;52.198;9.904;2023-02-03T08:54:42;100906.75;;;7.95;100.00
16255;BME280;8235;52.198;9.904;2023-02-03T08:57:09;100921.66;;;7.97;100.00
16255;BME280;8235;52.198;9.904;2023-02-03T08:59:37;100902.94;;;8.00;100.00
16255;BME280;8235;52.198;9.904;2023-02-03T09:02:06;100905.47;;;8.04;100.00
16255;BME280;8235;52.198;9.904;2023-02-03T09:04:34;100908.03;;;8.05;100.00
16255;BME280;8235;52.198;9.904;2023-02-03T09:07:01;100909.72;;;8.06;100.00
16255;BME280;8235;52.198;9.904;2023-02-03T09:09:28;100906.16;;;8.07;100.00
16255;BME280;8235;52.198;9.904;2023-02-03T09:11:56;100899.84;;;8.10;100.00
16255;BME280;8235;52.198;9.904;2023-02-03T09:14:27;100920.97;;;8.11;100.00
16255;BME280;8235;52.198;9.904;2023-02-03T09:16:53;100919.13;;;8.13;100.00
16255;BME280;8235;52.198;9.904;2023-02-03T09:19:20;100928.88;;;8.13;100.00
16255;BME280;8235;52.198;9.904;2023-02-03T09:21:46;100924.44;;;8.13;100.00
16255;BME280;8235;52.198;9.904;2023-02-03T09:24:13;100928.09;;;8.11;100.00
16255;BME280;8235;52.198;9.904;2023-02-03T09:26:39;100937.84;;;8.10;100.00
16255;BME280;8235;52.198;9.904;2023-02-03T09:29:07;100935.09;;;8.12;100.00
16255;BME280;8235;52.198;9.904;2023-02-03T09:31:34;100921.06;;;8.10;100.00
16255;BME280;8235;52.198;9.904;2023-02-03T09:34:00;100917.41;;;8.12;100.00
16255;BME280;8235;52.198;9.904;2023-02-03T09:36:27;100928.88;;;8.13;100.00
16255;BME280;8235;52.198;9.904;2023-02-03T09:38:55;100937.69;;;8.13;100.00
16255;BME280;8235;52.198;9.904;2023-02-03T09:41:31;100925.22;;;8.15;100.00
16255;BME280;8235;52.198;9.904;2023-02-03T09:44:11;100916.19;;;8.19;100.00
16255;BME280;8235;52.198;9.904;2023-02-03T09:46:43;100902.91;;;8.19;100.00
16255;BME280;8235;52.198;9.904;2023-02-03T09:49:13;100903.69;;;8.21;100.00
16255;BME280;8235;52.198;9.904;2023-02-03T09:51:46;100908.22;;;8.19;100.00
16255;BME280;8235;52.198;9.904;2023-02-03T09:54:18;100898.47;;;8.20;100.00
16255;BME280;8235;52.198;9.904;2023-02-03T09:56:46;100908.06;;;8.22;100.00
16255;BME280;8235;52.198;9.904;2023-02-03T09:59:18;100921.25;;;8.24;100.00
16255;BME280;8235;52.198;9.904;2023-02-03T10:01:51;100915.16;;;8.22;100.00
16255;BME280;8235;52.198;9.904;2023-02-03T10:04:27;100938.19;;;8.21;100.00
16255;BME280;8235;52.198;9.904;2023-02-03T10:07:02;100922.19;;;8.23;100.00
16255;BME280;8235;52.198;9.904;2023-02-03T10:09:40;100912.59;;;8.20;100.00
16255;BME280;8235;52.198;9.904;2023-02-03T10:12:29;100907.28;;;8.20;100.00
16255;BME280;8235;52.198;9.904;2023-02-03T10:15:15;100895.97;;;8.17;100.00
16255;BME280;8235;52.198;9.904;2023-02-03T10:17:47;100898.69;;;8.15;100.00
16255;BME280;8235;52.198;9.904;2023-02-03T10:20:20;100909.16;;;8.18;100.00
16255;BME280;8235;52.198;9.904;2023-02-03T10:22:51;100903.84;;;8.18;100.00
16255;BME280;8235;52.198;9.904;2023-02-03T10:25:19;100901.97;;;8.20;100.00
16255;BME280;8235;52.198;9.904;2023-02-03T10:27:49;100918.75;;;8.21;100.00
16255;BME280;8235;52.198;9.904;2023-02-03T10:30:20;100914.25;;;8.23;100.00
16255;BME280;8235;52.198;9.904;2023-02-03T10:32:48;100915.97;;;8.24;99.96
16255;BME280;8235;52.198;9.904;2023-02-03T10:35:17;100924.66;;;8.26;100.00
16255;BME280;8235;52.198;9.904;2023-02-03T10:37:48;100933.50;;;8.26;99.79
16255;BME280;8235;52.198;9.904;2023-02-03T10:40:16;100939.66;;;8.27;99.54
16255;BME280;8235;52.198;9.904;2023-02-03T10:42:46;100953.78;;;8.27;99.53
16255;BME280;8235;52.198;9.904;2023-02-03T10:45:36;100946.69;;;8.28;98.87
16255;BME280;8235;52.198;9.904;2023-02-03T10:48:04;100942.09;;;8.31;98.80
16255;BME280;8235;52.198;9.904;2023-02-03T10:50:34;100936.75;;;8.33;98.20
16255;BME280;8235;52.198;9.904;2023-02-03T10:53:19;100942.91;;;8.33;98.30
16255;BME280;8235;52.198;9.904;2023-02-03T10:55:48;100950.06;;;8.31;98.67
16255;BME280;8235;52.198;9.904;2023-02-03T10:58:18;100984.44;;;8.34;97.65
16255;BME280;8235;52.198;9.904;2023-02-03T11:00:53;100964.00;;;8.37;97.88
16255;BME280;8235;52.198;9.904;2023-02-03T11:03:22;100964.78;;;8.39;98.33
16255;BME280;8235;52.198;9.904;2023-02-03T11:06:03;100961.34;;;8.37;98.06
16255;BME280;8235;52.198;9.904;2023-02-03T11:08:32;100958.56;;;8.40;98.02
16255;BME280;8235;52.198;9.904;2023-02-03T11:11:03;100960.34;;;8.39;97.94
16255;BME280;8235;52.198;9.904;2023-02-03T11:13:30;100969.31;;;8.37;96.34
16255;BME280;8235;52.198;9.904;2023-02-03T11:16:00;100971.25;;;8.33;97.13
16255;BME280;8235;52.198;9.904;2023-02-03T11:18:40;100967.78;;;8.31;96.71
16255;BME280;8235;52.198;9.904;2023-02-03T11:21:18;100955.31;;;8.33;96.89
16255;BME280;8235;52.198;9.904;2023-02-03T11:23:53;100969.53;;;8.32;96.14
16255;BME280;8235;52.198;9.904;2023-02-03T11:26:23;100956.97;;;8.35;95.90
16255;BME280;8235;52.198;9.904;2023-02-03T11:28:52;100961.34;;;8.37;96.40
16255;BME280;8235;52.198;9.904;2023-02-03T11:31:23;100971.97;;;8.37;95.93
16255;BME280;8235;52.198;9.904;2023-02-03T11:33:53;100978.19;;;8.35;95.45
16255;BME280;8235;52.198;9.904;2023-02-03T11:36:21;100976.56;;;8.33;94.53
16255;BME280;8235;52.198;9.904;2023-02-03T11:38:47;100980.84;;;8.35;94.16
16255;BME280;8235;52.198;9.904;2023-02-03T11:41:16;100986.16;;;8.35;94.14
16255;BME280;8235;52.198;9.904;2023-02-03T11:43:43;100976.41;;;8.36;94.14
16255;BME280;8235;52.198;9.904;2023-02-03T11:46:10;100986.03;;;8.39;94.29
16255;BME280;8235;52.198;9.904;2023-02-03T11:48:48;100990.41;;;8.40;93.20
16255;BME280;8235;52.198;9.904;2023-02-03T11:51:27;100987.75;;;8.40;93.87
16255;BME280;8235;52.198;9.904;2023-02-03T11:54:16;100987.81;;;8.38;93.88
16255;BME280;8235;52.198;9.904;2023-02-03T11:56:57;100985.88;;;8.42;93.89
16255;BME280;8235;52.198;9.904;2023-02-03T11:59:40;100985.69;;;8.45;93.41
16255;BME280;8235;52.198;9.904;2023-02-03T12:05:35;100992.72;;;8.46;92.90
16255;BME280;8235;52.198;9.904;2023-02-03T12:08:22;101004.28;;;8.45;92.75
16255;BME280;8235;52.198;9.904;2023-02-03T12:10:59;101012.25;;;8.45;92.64
16255;BME280;8235;52.198;9.904;2023-02-03T12:13:45;101018.47;;;8.44;92.17
16255;BME280;8235;52.198;9.904;2023-02-03T12:16:26;101022.06;;;8.43;91.58
16255;BME280;8235;52.198;9.904;2023-02-03T12:19:05;101026.38;;;8.45;91.09
16255;BME280;8235;52.198;9.904;2023-02-03T12:21:42;101017.63;;;8.43;89.89
16255;BME280;8235;52.198;9.904;2023-02-03T12:24:16;101016.69;;;8.44;89.26
16255;BME280;8235;52.198;9.904;2023-02-03T12:26:55;101033.53;;;8.43;88.71
16255;BME280;8235;52.198;9.904;2023-02-03T12:29:26;101027.09;;;8.49;88.52
16255;BME280;8235;52.198;9.904;2023-02-03T12:32:02;101025.22;;;8.51;87.34
16255;BME280;8235;52.198;9.904;2023-02-03T12:34:34;101029.47;;;8.55;88.17
16255;BME280;8235;52.198;9.904;2023-02-03T12:37:08;101015.25;;;8.56;86.94
16255;BME280;8235;52.198;9.904;2023-02-03T12:39:40;101028.28;;;8.60;87.17
16255;BME280;8235;52.198;9.904;2023-02-03T12:42:14;101026.59;;;8.59;86.22
16255;BME280;8235;52.198;9.904;2023-02-03T12:44:45;101028.19;;;8.62;85.10
16255;BME280;8235;52.198;9.904;2023-02-03T12:47:21;101025.41;;;8.65;85.57
16255;BME280;8235;52.198;9.904;2023-02-03T12:49:52;101035.00;;;8.67;85.09
16255;BME280;8235;52.198;9.904;2023-02-03T12:52:25;101028.78;;;8.68;83.99
16255;BME280;8235;52.198;9.904;2023-02-03T12:54:59;101042.75;;;8.72;85.07
16255;BME280;8235;52.198;9.904;2023-02-03T12:57:33;101044.47;;;8.73;84.97
16255;BME280;8235;52.198;9.904;2023-02-03T13:00:09;101039.03;;;8.76;84.53
16255;BME280;8235;52.198;9.904;2023-02-03T13:02:51;101040.75;;;8.77;84.92
16255;BME280;8235;52.198;9.904;2023-02-03T13:05:25;101035.50;;;8.76;84.11
16255;BME280;8235;52.198;9.904;2023-02-03T13:07:58;101039.97;;;8.75;83.56
16255;BME280;8235;52.198;9.904;2023-02-03T13:10:30;101035.44;;;8.77;82.55
16255;BME280;8235;52.198;9.904;2023-02-03T13:13:01;101042.53;;;8.77;82.43
16255;BME280;8235;52.198;9.904;2023-02-03T13:15:34;101050.41;;;8.78;81.62
16255;BME280;8235;52.198;9.904;2023-02-03T13:18:06;101046.81;;;8.79;80.90
16255;BME280;8235;52.198;9.904;2023-02-03T13:20:35;101052.06;;;8.81;80.49
16255;BME280;8235;52.198;9.904;2023-02-03T13:23:05;101035.97;;;8.84;79.22
16255;BME280;8235;52.198;9.904;2023-02-03T13:25:44;101047.75;;;8.78;76.34